createdAt,value
2017-12-26T00:01:12.660Z,5.50
2017-12-26T00:03:40.260Z,5.40
2017-12-26T00:06:07.840Z,5.40
2017-12-26T00:08:36.325Z,5.40
2017-12-26T00:11:04.672Z,5.40
2017-12-26T00:13:32.259Z,5.40
2017-12-26T00:15:59.863Z,5.40
2017-12-26T00:18:27.818Z,5.40
2017-12-26T00:20:55.433Z,5.50
2017-12-26T00:23:22.997Z,5.40
2017-12-26T00:25:51.349Z,5.40
2017-12-26T00:28:18.932Z,5.40
2017-12-26T00:30:47.356Z,5.30
2017-12-26T00:33:14.923Z,5.30
2017-12-26T00:35:42.525Z,5.40
2017-12-26T00:38:10.105Z,5.40
2017-12-26T00:40:37.712Z,5.40
2017-12-26T00:43:05.251Z,5.30
2017-12-26T00:45:32.849Z,5.40
2017-12-26T00:48:00.394Z,5.30
2017-12-26T00:50:27.969Z,5.20
2017-12-26T00:52:55.524Z,5.20
2017-12-26T00:55:23.137Z,5.20
2017-12-26T00:57:51.097Z,5.20
2017-12-26T01:00:18.689Z,5.00
2017-12-26T01:02:46.268Z,4.90
2017-12-26T01:05:13.818Z,4.80
2017-12-26T01:07:41.410Z,4.70
2017-12-26T01:10:09.761Z,4.60
2017-12-26T01:12:37.282Z,4.50
2017-12-26T01:15:04.872Z,4.50
2017-12-26T01:17:32.913Z,4.50
2017-12-26T01:20:00.509Z,4.50
2017-12-26T01:22:28.175Z,4.40
2017-12-26T01:24:55.746Z,4.40
2017-12-26T01:27:23.341Z,4.40
2017-12-26T01:29:51.706Z,4.30
2017-12-26T01:32:19.279Z,4.30
2017-12-26T01:34:48.414Z,4.20
2017-12-26T01:37:15.961Z,4.20
2017-12-26T01:39:43.565Z,4.20
2017-12-26T01:42:11.197Z,4.20
2017-12-26T01:44:38.766Z,4.20
2017-12-26T01:47:06.329Z,4.20
2017-12-26T01:49:33.883Z,4.10
2017-12-26T01:54:36.185Z,4.00
2017-12-26T01:57:03.830Z,3.90
2017-12-26T01:59:31.406Z,3.80
2017-12-26T02:01:58.954Z,3.90
2017-12-26T02:04:27.497Z,3.90
2017-12-26T02:06:55.085Z,3.80
2017-12-26T02:09:22.637Z,3.80
2017-12-26T02:11:50.197Z,3.70
2017-12-26T02:14:17.761Z,3.80
2017-12-26T02:16:45.307Z,3.70
2017-12-26T02:19:12.848Z,3.70
2017-12-26T02:21:41.249Z,3.70
2017-12-26T02:24:08.811Z,3.70
2017-12-26T02:26:36.354Z,3.60
2017-12-26T02:29:03.944Z,3.60
2017-12-26T02:31:31.547Z,3.60
2017-12-26T02:33:59.208Z,3.50
2017-12-26T02:36:26.746Z,3.60
2017-12-26T02:38:54.402Z,3.50
2017-12-26T02:41:22.025Z,3.50
2017-12-26T02:43:50.680Z,3.50
2017-12-26T02:46:18.274Z,3.50
2017-12-26T02:48:45.846Z,3.50
2017-12-26T02:51:13.461Z,3.50
2017-12-26T02:53:41.017Z,3.50
2017-12-26T02:56:08.571Z,3.40
2017-12-26T02:58:36.136Z,3.40
2017-12-26T03:01:03.677Z,3.40
2017-12-26T03:03:32.049Z,3.30
2017-12-26T03:05:59.604Z,3.30
2017-12-26T03:08:27.200Z,3.20
2017-12-26T03:10:55.559Z,3.20
2017-12-26T03:13:23.135Z,3.20
2017-12-26T03:15:50.733Z,3.20
2017-12-26T03:18:18.300Z,3.20
2017-12-26T03:20:45.861Z,3.20
2017-12-26T03:23:14.403Z,3.30
2017-12-26T03:25:41.994Z,3.30
2017-12-26T03:28:09.584Z,3.30
2017-12-26T03:30:37.168Z,3.30
2017-12-26T03:33:05.592Z,3.30
2017-12-26T03:35:33.228Z,3.30
2017-12-26T03:38:00.789Z,3.30
2017-12-26T03:40:28.431Z,3.30
2017-12-26T03:42:57.188Z,3.30
2017-12-26T03:45:24.755Z,3.30
2017-12-26T03:47:52.368Z,3.30
2017-12-26T03:50:20.916Z,3.40
2017-12-26T03:52:50.167Z,3.90
2017-12-26T03:55:17.763Z,3.90
2017-12-26T03:57:45.324Z,4.30
2017-12-26T04:00:13.660Z,4.70
2017-12-26T04:02:41.301Z,4.80
2017-12-26T04:05:08.927Z,4.90
2017-12-26T04:07:36.487Z,5.10
2017-12-26T04:10:04.868Z,5.40
2017-12-26T04:12:32.443Z,5.40
2017-12-26T04:14:59.981Z,5.50
2017-12-26T04:17:27.596Z,5.60
2017-12-26T04:19:55.143Z,5.60
2017-12-26T04:22:22.839Z,5.70
2017-12-26T04:24:50.396Z,5.80
2017-12-26T04:27:18.007Z,5.80
2017-12-26T04:29:45.558Z,5.80
2017-12-26T04:32:13.201Z,5.90
2017-12-26T04:34:40.734Z,5.90
2017-12-26T04:37:08.323Z,6.00
2017-12-26T04:39:36.200Z,6.00
2017-12-26T04:42:03.765Z,6.00
2017-12-26T04:44:31.340Z,6.10
2017-12-26T04:46:58.952Z,6.20
2017-12-26T04:49:26.551Z,6.20
2017-12-26T04:51:54.098Z,6.20
2017-12-26T04:54:21.703Z,6.30
2017-12-26T04:56:49.351Z,6.30
2017-12-26T04:59:16.905Z,6.40
2017-12-26T05:01:44.542Z,6.50
2017-12-26T05:04:12.861Z,6.50
2017-12-26T05:06:40.441Z,6.60
2017-12-26T05:09:07.989Z,6.50
2017-12-26T05:11:35.581Z,6.60
2017-12-26T05:14:03.256Z,6.60
2017-12-26T05:16:30.872Z,6.60
2017-12-26T05:18:58.429Z,6.60
2017-12-26T05:21:25.998Z,6.60
2017-12-26T05:23:58.124Z,6.60
2017-12-26T05:26:26.429Z,6.60
2017-12-26T05:28:53.975Z,6.60
2017-12-26T05:31:21.541Z,6.70
2017-12-26T05:33:49.114Z,6.70
2017-12-26T05:36:16.691Z,6.70
2017-12-26T05:38:44.293Z,6.70
2017-12-26T05:41:11.884Z,6.80
2017-12-26T05:43:40.593Z,6.90
2017-12-26T05:46:09.116Z,6.90
2017-12-26T05:48:37.529Z,7.10
2017-12-26T05:51:05.156Z,7.00
2017-12-26T05:53:32.740Z,7.10
2017-12-26T05:56:00.327Z,7.20
2017-12-26T05:58:27.957Z,7.20
2017-12-26T06:00:55.752Z,7.30
2017-12-26T06:03:23.352Z,7.30
2017-12-26T06:05:50.911Z,7.40
2017-12-26T06:08:18.462Z,7.30
2017-12-26T06:10:46.464Z,7.30
2017-12-26T06:13:14.862Z,7.50
2017-12-26T06:15:42.569Z,7.50
2017-12-26T06:18:10.112Z,7.50
2017-12-26T06:20:37.686Z,7.50
2017-12-26T06:23:05.324Z,7.50
2017-12-26T06:25:32.896Z,7.60
2017-12-26T06:28:01.360Z,7.60
2017-12-26T06:30:29.936Z,7.70
2017-12-26T06:32:57.484Z,7.70
2017-12-26T06:35:25.036Z,7.70
2017-12-26T06:37:53.354Z,7.70
2017-12-26T06:40:20.928Z,7.70
2017-12-26T06:42:48.574Z,7.70
2017-12-26T06:45:16.180Z,7.70
2017-12-26T06:47:45.031Z,7.50
2017-12-26T06:50:12.602Z,7.50
2017-12-26T06:52:40.171Z,7.40
2017-12-26T06:55:08.282Z,7.40
2017-12-26T06:57:35.870Z,7.30
2017-12-26T07:00:03.522Z,7.30
2017-12-26T07:02:31.262Z,7.30
2017-12-26T07:04:58.926Z,7.30
2017-12-26T07:07:26.631Z,7.30
2017-12-26T07:09:54.213Z,7.30
2017-12-26T07:12:21.882Z,7.20
2017-12-26T07:14:49.470Z,7.20
2017-12-26T07:17:17.048Z,7.20
2017-12-26T07:19:44.618Z,7.10
2017-12-26T07:22:26.913Z,7.10
2017-12-26T07:24:55.131Z,7.00
2017-12-26T07:27:22.710Z,7.00
2017-12-26T07:29:50.295Z,7.00
2017-12-26T07:32:19.448Z,6.90
2017-12-26T07:34:47.022Z,6.90
2017-12-26T07:37:14.567Z,6.80
2017-12-26T07:39:42.168Z,6.80
2017-12-26T07:42:10.600Z,6.70
2017-12-26T07:44:38.237Z,6.70
2017-12-26T07:47:06.646Z,6.70
2017-12-26T07:49:34.239Z,6.70
2017-12-26T07:52:02.580Z,6.70
2017-12-26T07:54:30.226Z,6.70
2017-12-26T07:56:58.385Z,6.70
2017-12-26T07:59:26.873Z,6.60
2017-12-26T08:01:54.466Z,6.60
2017-12-26T08:04:22.066Z,6.70
2017-12-26T08:06:49.699Z,6.70
2017-12-26T08:09:17.307Z,6.70
2017-12-26T08:11:44.855Z,6.70
2017-12-26T08:14:12.520Z,6.60
2017-12-26T08:16:40.941Z,6.70
2017-12-26T08:19:08.487Z,6.70
2017-12-26T08:21:36.056Z,6.70
2017-12-26T08:24:03.674Z,6.70
2017-12-26T08:26:31.338Z,6.60
2017-12-26T08:28:58.864Z,6.60
2017-12-26T08:31:26.446Z,6.60
2017-12-26T08:33:54.011Z,6.50
2017-12-26T08:36:22.364Z,6.60
2017-12-26T08:38:50.683Z,6.50
2017-12-26T08:41:18.200Z,6.50
2017-12-26T08:43:45.751Z,6.40
2017-12-26T08:46:13.321Z,6.50
2017-12-26T08:48:40.926Z,6.50
2017-12-26T08:51:08.514Z,6.50
2017-12-26T08:53:36.065Z,6.40
2017-12-26T08:56:03.705Z,6.40
2017-12-26T08:58:31.402Z,6.30
2017-12-26T09:00:58.988Z,6.30
2017-12-26T09:03:27.287Z,6.30
2017-12-26T09:05:54.852Z,6.30
2017-12-26T09:08:22.436Z,6.30
2017-12-26T09:10:50.006Z,6.20
2017-12-26T09:13:17.633Z,6.30
2017-12-26T09:15:45.238Z,6.30
2017-12-26T09:18:12.788Z,6.30
2017-12-26T09:20:40.360Z,6.30
2017-12-26T09:23:07.920Z,6.40
2017-12-26T09:25:35.600Z,6.30
2017-12-26T09:28:03.182Z,6.30
2017-12-26T09:30:31.675Z,6.30
2017-12-26T09:32:59.267Z,6.30
2017-12-26T09:35:27.546Z,6.30
2017-12-26T09:37:55.134Z,6.30
2017-12-26T09:40:23.483Z,6.40
2017-12-26T09:42:51.026Z,6.30
2017-12-26T09:45:18.573Z,6.40
2017-12-26T09:47:46.138Z,6.40
2017-12-26T09:50:13.769Z,6.50
2017-12-26T09:52:41.316Z,6.50
2017-12-26T09:55:08.878Z,6.60
2017-12-26T09:57:36.488Z,6.60
2017-12-26T10:00:04.290Z,6.50
2017-12-26T10:02:31.883Z,6.50
2017-12-26T10:04:59.443Z,6.60
2017-12-26T10:07:27.030Z,6.60
2017-12-26T10:09:54.642Z,6.60
2017-12-26T10:12:23.019Z,6.50
2017-12-26T10:14:51.448Z,6.60
2017-12-26T10:17:18.974Z,6.60
2017-12-26T10:19:48.205Z,6.70
2017-12-26T10:22:16.735Z,6.70
2017-12-26T10:24:45.162Z,6.70
2017-12-26T10:27:13.730Z,6.70
2017-12-26T10:29:42.032Z,6.70
2017-12-26T10:32:09.588Z,6.70
2017-12-26T10:34:37.151Z,6.70
2017-12-26T10:37:04.682Z,6.80
2017-12-26T10:39:33.048Z,6.80
2017-12-26T10:42:01.101Z,6.80
2017-12-26T10:44:28.882Z,6.70
2017-12-26T10:46:56.793Z,6.80
2017-12-26T10:49:24.417Z,6.70
2017-12-26T10:51:52.786Z,6.90
2017-12-26T10:54:20.373Z,6.80
2017-12-26T10:56:47.943Z,6.90
2017-12-26T10:59:15.485Z,6.90
2017-12-26T11:01:43.111Z,7.00
2017-12-26T11:04:10.686Z,7.00
2017-12-26T11:06:38.833Z,6.90
2017-12-26T11:09:06.662Z,6.80
2017-12-26T11:11:34.277Z,6.90
2017-12-26T11:14:01.855Z,6.90
2017-12-26T11:16:29.495Z,6.90
2017-12-26T11:18:57.882Z,7.00
2017-12-26T11:21:26.299Z,7.00
2017-12-26T11:23:53.879Z,7.00
2017-12-26T11:26:21.422Z,7.10
2017-12-26T11:28:49.338Z,6.90
2017-12-26T11:31:17.964Z,6.90
2017-12-26T11:33:45.588Z,6.90
2017-12-26T11:36:13.965Z,7.10
2017-12-26T11:38:41.578Z,7.10
2017-12-26T11:41:10.013Z,7.10
2017-12-26T11:43:37.596Z,7.10
2017-12-26T11:46:05.182Z,7.10
2017-12-26T11:48:32.737Z,7.10
2017-12-26T11:51:00.346Z,7.20
2017-12-26T11:53:27.900Z,7.20
2017-12-26T11:55:55.498Z,7.10
2017-12-26T11:58:23.130Z,7.20
2017-12-26T12:00:50.692Z,7.20
2017-12-26T12:03:18.281Z,7.20
2017-12-26T12:05:45.872Z,7.20
2017-12-26T12:08:13.426Z,7.30
2017-12-26T12:10:41.009Z,7.40
2017-12-26T12:13:08.618Z,7.30
2017-12-26T12:15:37.506Z,7.30
2017-12-26T12:18:05.859Z,7.30
2017-12-26T12:20:33.394Z,7.30
2017-12-26T12:23:00.982Z,7.30
2017-12-26T12:25:31.111Z,7.30
2017-12-26T12:27:58.671Z,7.30
2017-12-26T12:30:26.258Z,7.30
2017-12-26T12:32:53.863Z,7.40
2017-12-26T12:35:22.222Z,7.40
2017-12-26T12:37:50.752Z,7.50
2017-12-26T12:40:18.316Z,7.50
2017-12-26T12:42:46.675Z,7.50
2017-12-26T12:45:14.243Z,7.50
2017-12-26T12:47:41.898Z,7.50
2017-12-26T12:50:09.429Z,7.40
2017-12-26T12:52:37.774Z,7.50
2017-12-26T12:55:05.342Z,7.50
2017-12-26T12:57:32.946Z,7.40
2017-12-26T13:00:00.557Z,7.40
2017-12-26T13:02:28.170Z,7.40
2017-12-26T13:04:55.776Z,7.40
2017-12-26T13:07:24.088Z,7.40
2017-12-26T13:09:51.870Z,7.40
2017-12-26T13:12:20.337Z,7.40
2017-12-26T13:14:48.657Z,7.40
2017-12-26T13:17:17.055Z,7.50
2017-12-26T13:19:45.469Z,7.50
2017-12-26T13:22:13.815Z,7.40
2017-12-26T13:24:42.130Z,7.40
2017-12-26T13:27:10.452Z,7.40
2017-12-26T13:29:38.555Z,7.40
2017-12-26T13:32:06.208Z,7.30
2017-12-26T13:34:33.806Z,7.30
2017-12-26T13:37:02.181Z,7.30
2017-12-26T13:39:30.545Z,7.20
2017-12-26T13:41:58.946Z,7.20
2017-12-26T13:44:26.662Z,7.20
2017-12-26T13:46:54.238Z,7.30
2017-12-26T13:49:21.942Z,7.20
2017-12-26T13:51:49.528Z,7.30
2017-12-26T13:54:17.183Z,7.30
2017-12-26T13:56:45.117Z,7.40
2017-12-26T13:59:13.446Z,7.40
2017-12-26T14:01:40.979Z,7.40
2017-12-26T14:04:08.536Z,7.40
2017-12-26T14:06:36.125Z,7.50
2017-12-26T14:09:05.001Z,7.50
2017-12-26T14:11:32.530Z,7.50
2017-12-26T14:14:00.154Z,7.40
2017-12-26T14:16:28.464Z,7.30
2017-12-26T14:18:56.029Z,7.30
2017-12-26T14:21:23.615Z,7.30
2017-12-26T14:23:51.173Z,7.30
2017-12-26T14:26:18.852Z,7.30
2017-12-26T14:28:46.488Z,7.20
2017-12-26T14:31:14.055Z,7.30
2017-12-26T14:33:41.715Z,7.30
2017-12-26T14:36:09.276Z,7.30
2017-12-26T14:38:36.850Z,7.30
2017-12-26T14:41:04.500Z,7.30
2017-12-26T14:43:32.917Z,7.20
2017-12-26T14:46:00.505Z,7.20
2017-12-26T14:48:28.908Z,7.30
2017-12-26T14:50:56.506Z,7.20
2017-12-26T14:53:24.103Z,7.20
2017-12-26T14:55:52.209Z,7.20
2017-12-26T14:58:19.803Z,7.20
2017-12-26T15:00:47.370Z,7.30
2017-12-26T15:03:14.981Z,7.20
2017-12-26T15:05:42.571Z,7.10
2017-12-26T15:08:10.113Z,7.10
2017-12-26T15:10:37.766Z,7.10
2017-12-26T15:13:05.384Z,7.00
2017-12-26T15:15:32.988Z,7.00
2017-12-26T15:18:00.571Z,6.90
2017-12-26T15:20:29.362Z,6.90
2017-12-26T15:22:57.007Z,6.90
2017-12-26T15:25:25.572Z,6.80
2017-12-26T15:27:53.171Z,6.80
2017-12-26T15:30:22.193Z,6.80
2017-12-26T15:32:50.206Z,6.80
2017-12-26T15:35:17.761Z,6.80
2017-12-26T15:37:45.326Z,6.80
2017-12-26T15:40:12.888Z,6.80
2017-12-26T15:42:40.441Z,6.80
2017-12-26T15:45:07.992Z,6.70
2017-12-26T15:47:36.494Z,6.70
2017-12-26T15:50:04.922Z,6.70
2017-12-26T15:52:32.520Z,6.60
2017-12-26T15:55:00.125Z,6.60
2017-12-26T15:57:27.702Z,6.50
2017-12-26T15:59:55.308Z,6.50
2017-12-26T16:02:22.924Z,6.50
2017-12-26T16:04:52.012Z,6.50
2017-12-26T16:07:19.577Z,6.50
2017-12-26T16:09:47.197Z,6.50
2017-12-26T16:12:14.772Z,6.40
2017-12-26T16:14:42.387Z,6.50
2017-12-26T16:17:09.994Z,6.60
2017-12-26T16:19:37.561Z,6.60
2017-12-26T16:22:05.133Z,6.60
2017-12-26T16:24:32.832Z,6.70
2017-12-26T16:27:00.434Z,6.60
2017-12-26T16:29:28.368Z,6.70
2017-12-26T16:31:56.007Z,6.80
2017-12-26T16:34:24.355Z,6.80
2017-12-26T16:36:52.763Z,6.80
2017-12-26T16:39:21.175Z,6.70
2017-12-26T16:41:49.043Z,6.70
2017-12-26T16:44:16.732Z,6.80
2017-12-26T16:46:44.460Z,6.70
2017-12-26T16:49:12.057Z,6.80
2017-12-26T16:51:39.695Z,6.70
2017-12-26T16:54:07.289Z,6.70
2017-12-26T16:56:34.867Z,6.70
2017-12-26T16:59:02.451Z,6.60
2017-12-26T17:01:30.029Z,6.60
2017-12-26T17:03:57.661Z,6.70
2017-12-26T17:06:25.246Z,6.70
2017-12-26T17:08:52.821Z,6.70
2017-12-26T17:11:21.390Z,6.60
2017-12-26T17:13:48.941Z,6.60
2017-12-26T17:16:17.344Z,6.50
2017-12-26T17:18:45.023Z,6.40
2017-12-26T17:21:12.571Z,6.40
2017-12-26T17:23:40.240Z,6.30
2017-12-26T17:26:07.836Z,6.30
2017-12-26T17:28:35.504Z,6.30
2017-12-26T17:31:03.094Z,6.30
2017-12-26T17:33:31.434Z,6.20
2017-12-26T17:35:59.803Z,6.20
2017-12-26T17:38:28.157Z,6.10
2017-12-26T17:40:56.522Z,6.10
2017-12-26T17:43:24.096Z,6.20
2017-12-26T17:45:51.695Z,6.10
2017-12-26T17:48:19.306Z,6.20
2017-12-26T17:50:46.894Z,6.10
2017-12-26T17:53:14.509Z,6.10
2017-12-26T17:55:42.144Z,6.10
2017-12-26T17:58:09.757Z,6.00
2017-12-26T18:00:37.329Z,6.10
2017-12-26T18:03:04.966Z,6.00
2017-12-26T18:05:32.637Z,6.00
2017-12-26T18:08:00.323Z,6.00
2017-12-26T18:10:27.900Z,6.10
2017-12-26T18:12:55.493Z,6.00
2017-12-26T18:15:23.131Z,6.00
2017-12-26T18:17:50.760Z,6.00
2017-12-26T18:20:18.298Z,6.00
2017-12-26T18:22:45.875Z,5.90
2017-12-26T18:25:13.506Z,5.90
2017-12-26T18:27:41.978Z,5.90
2017-12-26T18:30:09.509Z,5.80
2017-12-26T18:32:37.326Z,5.80
2017-12-26T18:35:04.978Z,5.80
2017-12-26T18:37:32.625Z,5.80
2017-12-26T18:40:00.186Z,5.70
2017-12-26T18:42:27.788Z,5.70
2017-12-26T18:44:55.344Z,5.80
2017-12-26T18:47:22.977Z,5.80
2017-12-26T18:49:50.526Z,5.80
2017-12-26T18:52:18.152Z,5.90
2017-12-26T18:54:45.882Z,5.90
2017-12-26T18:57:13.486Z,6.00
2017-12-26T18:59:41.107Z,6.00
2017-12-26T19:02:09.486Z,6.10
2017-12-26T19:04:37.115Z,6.10
2017-12-26T19:07:04.753Z,6.10
2017-12-26T19:09:32.304Z,6.20
2017-12-26T19:11:59.965Z,6.20
2017-12-26T19:14:28.301Z,6.30
2017-12-26T19:16:56.428Z,6.30
2017-12-26T19:19:23.996Z,6.30
2017-12-26T19:21:51.996Z,6.30
2017-12-26T19:24:19.571Z,6.30
2017-12-26T19:26:47.949Z,6.30
2017-12-26T19:29:15.568Z,6.20
2017-12-26T19:31:43.201Z,6.10
2017-12-26T19:34:11.613Z,6.00
2017-12-26T19:36:39.202Z,6.00
2017-12-26T19:39:06.788Z,6.00
2017-12-26T19:41:34.328Z,6.00
2017-12-26T19:44:02.028Z,6.10
2017-12-26T19:46:29.639Z,6.10
2017-12-26T19:48:57.183Z,6.10
2017-12-26T19:51:24.759Z,6.10
2017-12-26T19:53:52.356Z,6.10
2017-12-26T19:56:20.700Z,6.10
2017-12-26T19:58:48.250Z,6.10
2017-12-26T20:01:16.782Z,6.10
2017-12-26T20:03:44.416Z,6.00
2017-12-26T20:06:12.037Z,6.10
2017-12-26T20:08:39.702Z,6.10
2017-12-26T20:11:07.386Z,6.10
2017-12-26T20:13:34.982Z,6.20
2017-12-26T20:16:03.334Z,6.10
2017-12-26T20:18:30.904Z,6.10
2017-12-26T20:20:58.479Z,6.20
2017-12-26T20:23:26.069Z,6.20
2017-12-26T20:25:53.652Z,6.20
2017-12-26T20:28:26.884Z,6.30
2017-12-26T20:30:55.338Z,6.30
2017-12-26T20:33:22.964Z,6.30
2017-12-26T20:35:50.538Z,6.20
2017-12-26T20:38:18.119Z,6.20
2017-12-26T20:40:45.730Z,6.20
2017-12-26T20:43:13.325Z,6.10
2017-12-26T20:45:41.036Z,5.90
2017-12-26T20:48:09.434Z,5.90
2017-12-26T20:50:37.792Z,5.80
2017-12-26T20:53:05.412Z,5.80
2017-12-26T20:55:33.117Z,5.70
2017-12-26T20:58:00.853Z,5.60
2017-12-26T21:00:28.445Z,5.60
2017-12-26T21:02:55.974Z,5.60
2017-12-26T21:05:23.534Z,5.50
2017-12-26T21:07:51.074Z,5.40
2017-12-26T21:10:18.673Z,5.40
2017-12-26T21:12:46.292Z,5.30
2017-12-26T21:15:13.872Z,5.20
2017-12-26T21:17:41.477Z,5.10
2017-12-26T21:20:09.052Z,5.10
2017-12-26T21:22:36.650Z,5.00
2017-12-26T21:25:04.289Z,4.90
2017-12-26T21:27:31.897Z,4.90
2017-12-26T21:29:59.528Z,4.80
2017-12-26T21:32:27.066Z,4.80
2017-12-26T21:34:54.635Z,4.80
2017-12-26T21:37:22.188Z,4.70
2017-12-26T21:39:49.800Z,4.70
2017-12-26T21:42:17.399Z,4.70
2017-12-26T21:44:45.481Z,4.60
2017-12-26T21:47:13.108Z,4.60
2017-12-26T21:49:41.589Z,4.60
2017-12-26T21:52:09.193Z,4.50
2017-12-26T21:54:36.939Z,4.50
2017-12-26T21:57:04.572Z,4.50
2017-12-26T21:59:32.943Z,4.40
2017-12-26T22:02:01.271Z,4.40
2017-12-26T22:04:28.876Z,4.40
2017-12-26T22:06:56.446Z,4.30
2017-12-26T22:09:24.856Z,4.30
2017-12-26T22:11:52.572Z,4.30
2017-12-26T22:14:20.182Z,4.30
2017-12-26T22:16:47.940Z,4.30
2017-12-26T22:19:15.518Z,4.30
2017-12-26T22:21:43.103Z,4.20
2017-12-26T22:24:10.751Z,4.30
2017-12-26T22:26:38.392Z,4.30
2017-12-26T22:29:06.024Z,4.30
2017-12-26T22:31:33.769Z,4.30
2017-12-26T22:34:01.327Z,4.30
2017-12-26T22:36:28.936Z,4.30
2017-12-26T22:38:56.564Z,4.30
2017-12-26T22:41:24.885Z,4.30
2017-12-26T22:43:53.332Z,4.30
2017-12-26T22:46:20.937Z,4.30
2017-12-26T22:48:48.931Z,4.30
2017-12-26T22:51:16.505Z,4.30
2017-12-26T22:53:44.105Z,4.40
2017-12-26T22:56:11.708Z,4.30
2017-12-26T22:58:40.673Z,4.30
2017-12-26T23:01:08.741Z,4.30
2017-12-26T23:03:36.463Z,4.30
2017-12-26T23:06:04.852Z,4.30
2017-12-26T23:08:32.441Z,4.30
2017-12-26T23:11:00.046Z,4.30
2017-12-26T23:13:29.470Z,4.20
2017-12-26T23:16:02.743Z,4.20
2017-12-26T23:18:30.974Z,4.20
2017-12-26T23:20:59.369Z,4.20
2017-12-26T23:23:32.585Z,4.20
2017-12-26T23:26:05.857Z,4.20
2017-12-26T23:28:39.230Z,4.20
2017-12-26T23:31:12.903Z,4.20
2017-12-26T23:33:47.077Z,4.20
2017-12-26T23:36:20.374Z,4.30
2017-12-26T23:38:53.562Z,4.30
2017-12-26T23:41:28.056Z,4.30
2017-12-26T23:44:01.211Z,4.30
2017-12-26T23:46:35.349Z,4.40
2017-12-26T23:49:08.659Z,4.40
2017-12-26T23:51:42.142Z,4.40
2017-12-26T23:54:15.280Z,4.40
2017-12-26T23:59:48.686Z,4.50
